Terminal Aerodrome Forecast
Issued by NWS Northern Indiana

Home | Current Version | Previous Version | Text Only | Print | Product List | Glossary Off
Versions: 1 2 3 4 5 6 7 8 9 10 11 12 13 14 15 16 17

370
FTUS43 KIWX 041133
TAFFWA
TAF
KFWA 041133Z 0412/0512 26012KT P6SM OVC015
     FM041600 27012KT P6SM SCT015 BKN025
     FM041900 27010KT P6SM SCT030
     FM050000 23004KT P6SM BKN050=

USA.gov is the U.S. government's official web portal to all federal, state and local government web resources and services.